Time;durP1;ratioP1;P1;durP2;ratioP2;P2;SDS_P1;SDS_P2;PMS_P1;PMS_P2;Temp;Humidity;BMP_temperature;BMP_pressure;BME280_temperature;BME280_humidity;BME280_pressure;Samples;Min_cycle;Max_cycle;Signal;HPM_P1;HPM_P2
2023/09/18 07:56:23;;;;;;;;;;;;;;;7.73;100.00;98952.25;5031497;28;20059;-83
2023/09/18 07:58:48;;;;;;;;;;;;;;;7.81;100.00;98962.47;5032759;28;20015;-81
2023/09/18 08:01:16;;;;;;;;;;;;;;;7.76;100.00;98969.72;5032159;28;19974;-82
2023/09/18 08:03:41;;;;;;;;;;;;;;;7.79;100.00;98967.81;5032620;28;19976;-81
2023/09/18 08:06:06;;;;;;;;;;;;;;;7.87;100.00;98969.25;5032366;28;20313;-84
2023/09/18 08:08:33;;;;;;;;;;;;;;;7.85;100.00;98989.53;5031105;28;20287;-83
2023/09/18 08:10:58;;;;;;;;;;;;;;;7.92;100.00;98991.00;5031211;28;19917;-82
2023/09/18 08:13:24;;;;;;;;;;;;;;;7.92;100.00;98983.09;5047638;28;19924;-84
2023/09/18 08:15:49;;;;;;;;;;;;;;;7.95;100.00;98982.97;5032374;28;19924;-83
2023/09/18 08:18:14;;;;;;;;;;;;;;;7.98;100.00;98974.91;5032323;28;19928;-84
2023/09/18 08:20:40;;;;;;;;;;;;;;;8.03;100.00;98987.88;5030162;28;20000;-83
2023/09/18 08:23:06;;;;;;;;;;;;;;;8.04;100.00;98985.19;5030731;28;19921;-82
2023/09/18 08:25:31;;;;;;;;;;;;;;;8.06;100.00;98993.00;5032194;28;19963;-82
2023/09/18 08:27:57;;;;;;;;;;;;;;;8.06;100.00;98982.44;5032171;28;19924;-84
2023/09/18 08:30:22;;;;;;;;;;;;;;;8.13;100.00;98992.66;5032362;28;19963;-83
2023/09/18 08:32:47;;;;;;;;;;;;;;;8.08;100.00;98983.25;5032204;28;20007;-82
2023/09/18 08:35:13;;;;;;;;;;;;;;;8.12;100.00;99001.53;5032068;28;19925;-84
2023/09/18 08:37:41;;;;;;;;;;;;;;;8.11;100.00;98997.16;5031816;28;20423;-82
2023/09/18 08:40:11;;;;;;;;;;;;;;;8.16;100.00;98997.81;5031527;28;19921;-83
2023/09/18 08:42:39;;;;;;;;;;;;;;;8.15;100.00;98995.22;5032382;28;20259;-83
2023/09/18 08:45:07;;;;;;;;;;;;;;;8.15;100.00;98988.19;5031444;28;19944;-83
2023/09/18 08:47:33;;;;;;;;;;;;;;;8.20;100.00;98990.63;5032054;28;19921;-83
2023/09/18 08:49:58;;;;;;;;;;;;;;;8.17;100.00;98975.78;5031916;28;20347;-82
2023/09/18 08:52:24;;;;;;;;;;;;;;;8.17;100.00;98965.22;5031854;28;19984;-83
2023/09/18 08:54:50;;;;;;;;;;;;;;;8.21;100.00;98971.19;5030524;28;20004;-86
2023/09/18 08:57:16;;;;;;;;;;;;;;;8.26;100.00;98984.19;5031799;28;20007;-82
2023/09/18 08:59:43;;;;;;;;;;;;;;;8.27;100.00;98985.91;5030684;28;20005;-82
2023/09/18 09:02:11;;;;;;;;;;;;;;;8.30;100.00;98985.78;5031858;28;19929;-82
2023/09/18 09:04:36;;;;;;;;;;;;;;;8.31;100.00;98982.19;5031698;28;19928;-84
2023/09/18 09:07:02;;;;;;;;;;;;;;;8.31;100.00;98976.91;5031771;28;19917;-81
2023/09/18 09:09:28;;;;;;;;;;;;;;;8.31;100.00;98990.97;5030377;28;20418;-82
2023/09/18 09:11:53;;;;;;;;;;;;;;;8.33;100.00;98990.91;5031807;28;19925;-83
2023/09/18 09:14:21;;;;;;;;;;;;;;;8.31;100.00;98992.75;5033421;28;19974;-82
2023/09/18 09:16:50;;;;;;;;;;;;;;;8.32;100.00;98997.94;5036233;28;19921;-81
2023/09/18 09:19:17;;;;;;;;;;;;;;;8.00;100.00;98995.00;5034724;28;20322;-84
2023/09/18 09:21:43;;;;;;;;;;;;;;;7.52;100.00;99005.94;5035418;28;19957;-82
2023/09/18 09:24:13;;;;;;;;;;;;;;;7.42;100.00;99003.69;5034141;28;20361;-82
2023/09/18 09:26:39;;;;;;;;;;;;;;;7.31;100.00;99002.41;5035318;28;19959;-83
2023/09/18 09:29:18;;;;;;;;;;;;;;;7.23;100.00;98997.47;5050730;28;19917;-83
2023/09/18 09:31:44;;;;;;;;;;;;;;;7.20;100.00;98989.69;5035140;28;19924;-89
2023/09/18 09:34:09;;;;;;;;;;;;;;;7.44;100.00;98993.91;5034037;28;20296;-83
2023/09/18 09:36:34;;;;;;;;;;;;;;;7.62;100.00;98997.53;5035545;28;19924;-81
2023/09/18 09:38:59;;;;;;;;;;;;;;;7.78;100.00;98999.50;5033896;28;19917;-83
2023/09/18 09:41:27;;;;;;;;;;;;;;;7.62;100.00;99004.59;5035164;28;19924;-84
2023/09/18 09:43:54;;;;;;;;;;;;;;;7.44;100.00;99012.38;5035204;28;19920;-82
2023/09/18 09:46:22;;;;;;;;;;;;;;;7.25;100.00;99014.06;5035017;28;20378;-82
2023/09/18 09:49:01;;;;;;;;;;;;;;;7.28;100.00;99006.88;5035337;28;19917;-83
2023/09/18 09:51:26;;;;;;;;;;;;;;;7.19;100.00;99011.69;5034683;28;19917;-85
2023/09/18 09:53:52;;;;;;;;;;;;;;;7.16;100.00;99007.38;5033745;28;19967;-83
2023/09/18 09:56:21;;;;;;;;;;;;;;;7.06;100.00;99000.81;5034829;28;20342;-83
2023/09/18 09:59:04;;;;;;;;;;;;;;;7.02;100.00;98993.94;5035299;28;20264;-82
2023/09/18 10:01:30;;;;;;;;;;;;;;;7.08;100.00;99010.38;5034782;28;20449;-84
2023/09/18 10:03:56;;;;;;;;;;;;;;;7.03;100.00;99011.47;5034599;28;20392;-84
2023/09/18 10:06:21;;;;;;;;;;;;;;;6.99;100.00;99005.47;5034566;28;19944;-83
2023/09/18 10:08:47;;;;;;;;;;;;;;;6.96;100.00;99005.59;5033468;28;19963;-84
2023/09/18 10:11:16;;;;;;;;;;;;;;;6.94;100.00;99007.44;5034697;28;19924;-84
2023/09/18 10:17:07;;;;;;;;;;;;;;;6.77;100.00;98999.34;5012465;28;20304;-84
2023/09/18 10:19:39;;;;;;;;;;;;;;;6.85;100.00;98992.84;5030289;28;19944;-83
2023/09/18 10:22:05;;;;;;;;;;;;;;;6.85;100.00;98989.38;5033023;28;19995;-83
2023/09/18 10:24:33;;;;;;;;;;;;;;;6.77;100.00;98991.44;5032643;28;20476;-82
2023/09/18 10:27:02;;;;;;;;;;;;;;;6.84;100.00;98990.28;5034202;28;20012;-84
2023/09/18 10:29:29;;;;;;;;;;;;;;;6.81;100.00;98985.13;5034215;28;20368;-83
2023/09/18 10:31:54;;;;;;;;;;;;;;;6.78;100.00;98979.97;5034205;28;20340;-83
2023/09/18 10:34:21;;;;;;;;;;;;;;;6.73;100.00;98978.41;5034160;28;19941;-82
2023/09/18 10:36:50;;;;;;;;;;;;;;;6.69;100.00;98970.69;5034150;28;19921;-83
2023/09/18 10:39:19;;;;;;;;;;;;;;;6.72;100.00;98960.03;5032781;28;19953;-82
2023/09/18 10:41:47;;;;;;;;;;;;;;;6.75;100.00;98964.31;5033756;28;19960;-83
2023/09/18 10:44:13;;;;;;;;;;;;;;;6.69;100.00;98960.16;5033416;28;19921;-83
2023/09/18 10:46:38;;;;;;;;;;;;;;;6.75;100.00;98962.56;5033937;28;20450;-82
2023/09/18 10:49:04;;;;;;;;;;;;;;;6.70;100.00;98967.13;5033878;28;19921;-82
2023/09/18 10:51:31;;;;;;;;;;;;;;;6.75;100.00;98965.19;5049083;28;19956;-83
2023/09/18 10:53:56;;;;;;;;;;;;;;;7.04;100.00;98969.25;5032546;28;20376;-82
2023/09/18 10:56:21;;;;;;;;;;;;;;;7.35;100.00;98965.31;5032395;28;19976;-87
2023/09/18 10:58:55;;;;;;;;;;;;;;;7.55;100.00;98968.91;5032500;28;19917;-83
2023/09/18 11:01:23;;;;;;;;;;;;;;;7.49;100.00;98977.06;5033736;28;19984;-83
2023/09/18 11:03:49;;;;;;;;;;;;;;;7.26;100.00;98971.84;5033496;28;19928;-84
2023/09/18 11:06:17;;;;;;;;;;;;;;;7.07;100.00;98977.03;5033586;28;20420;-83
2023/09/18 11:08:44;;;;;;;;;;;;;;;7.23;100.00;98971.13;5032313;28;19940;-83
2023/09/18 11:11:11;;;;;;;;;;;;;;;7.58;100.00;98966.13;5033510;28;20423;-83
2023/09/18 11:13:40;;;;;;;;;;;;;;;7.79;100.00;98965.16;5033419;28;19921;-83
2023/09/18 11:16:24;;;;;;;;;;;;;;;7.71;100.00;98961.16;5032742;28;19927;-83
2023/09/18 11:18:58;;;;;;;;;;;;;;;7.47;100.00;98953.41;5033343;28;19974;-84
2023/09/18 11:21:30;;;;;;;;;;;;;;;7.27;100.00;98951.63;5047833;28;19921;-82
2023/09/18 11:23:58;;;;;;;;;;;;;;;7.23;100.00;98957.97;5031511;28;19921;-82
2023/09/18 11:26:24;;;;;;;;;;;;;;;7.36;100.00;98959.13;5033557;28;19928;-82
2023/09/18 11:28:50;;;;;;;;;;;;;;;7.70;100.00;98956.81;5033023;28;19917;-83
2023/09/18 11:31:15;;;;;;;;;;;;;;;7.72;100.00;98953.19;5033186;28;19917;-82
2023/09/18 11:33:45;;;;;;;;;;;;;;;7.66;100.00;98952.59;5031726;28;20288;-83
2023/09/18 11:36:30;;;;;;;;;;;;;;;7.39;100.00;98948.47;5032360;28;20292;-82
2023/09/18 11:39:03;;;;;;;;;;;;;;;7.22;100.00;98950.97;5030929;28;19924;-82
2023/09/18 11:41:38;;;;;;;;;;;;;;;7.19;100.00;98937.91;5032808;28;19924;-84
2023/09/18 11:44:13;;;;;;;;;;;;;;;7.11;100.00;98934.75;5048146;28;19921;-83
2023/09/18 11:46:39;;;;;;;;;;;;;;;7.03;100.00;98932.44;5032555;28;20272;-83
2023/09/18 11:49:06;;;;;;;;;;;;;;;7.01;100.00;98935.13;5032917;28;20007;-83
2023/09/18 11:51:32;;;;;;;;;;;;;;;7.11;100.00;98934.75;5032621;28;19917;-83
2023/09/18 11:53:58;;;;;;;;;;;;;;;7.30;100.00;98924.28;5031571;28;19928;-83
2023/09/18 11:56:23;;;;;;;;;;;;;;;7.41;100.00;98922.03;5032473;28;19925;-83
2023/09/18 11:58:50;;;;;;;;;;;;;;;7.61;100.00;98929.94;5032963;28;19921;-84
2023/09/18 12:01:15;;;;;;;;;;;;;;;7.44;100.00;98928.03;5032523;28;19998;-83
2023/09/18 12:03:41;;;;;;;;;;;;;;;7.26;100.00;98924.41;5032501;28;19964;-83
2023/09/18 12:06:08;;;;;;;;;;;;;;;7.39;100.00;98935.28;5031502;28;19917;-83
2023/09/18 12:08:35;;;;;;;;;;;;;;;7.56;100.00;98941.59;5031191;28;19921;-83
2023/09/18 12:11:05;;;;;;;;;;;;;;;7.68;100.00;98940.22;5032528;28;19933;-83
2023/09/18 12:13:30;;;;;;;;;;;;;;;7.61;100.00;98939.59;5031905;28;20349;-84
2023/09/18 12:16:05;;;;;;;;;;;;;;;7.35;100.00;98923.16;5032325;28;20008;-83
2023/09/18 12:18:30;;;;;;;;;;;;;;;7.30;100.00;98930.41;5031757;28;20463;-84
2023/09/18 12:20:58;;;;;;;;;;;;;;;7.21;100.00;98930.78;5032179;28;19960;-83
2023/09/18 12:23:27;;;;;;;;;;;;;;;7.11;100.00;98913.69;5030954;28;19928;-83
2023/09/18 12:25:58;;;;;;;;;;;;;;;7.07;100.00;98907.69;5032148;28;19917;-83
2023/09/18 12:28:24;;;;;;;;;;;;;;;7.27;100.00;98920.00;5032012;28;20480;-84
2023/09/18 12:30:52;;;;;;;;;;;;;;;7.48;100.00;98927.88;5032289;28;20936;-83
2023/09/18 12:33:17;;;;;;;;;;;;;;;7.68;100.00;98925.22;5032066;28;19999;-83
2023/09/18 12:35:42;;;;;;;;;;;;;;;7.60;100.00;98917.66;5030787;28;20008;-84
2023/09/18 12:38:15;;;;;;;;;;;;;;;7.46;100.00;98920.06;5030955;28;19917;-84
2023/09/18 12:40:41;;;;;;;;;;;;;;;7.34;100.00;98918.81;5030004;28;19924;-83
2023/09/18 12:43:07;;;;;;;;;;;;;;;7.66;100.00;98911.28;5032078;28;19925;-83
2023/09/18 12:45:33;;;;;;;;;;;;;;;7.69;100.00;98903.22;5031917;28;19921;-84
2023/09/18 12:47:59;;;;;;;;;;;;;;;7.90;100.00;98901.38;5034094;28;19921;-83
2023/09/18 12:50:25;;;;;;;;;;;;;;;7.81;100.00;98905.28;5038541;28;19921;-84
2023/09/18 12:52:50;;;;;;;;;;;;;;;7.55;100.00;98908.25;5035567;28;19918;-85
2023/09/18 12:55:23;;;;;;;;;;;;;;;7.61;100.00;98907.97;5036740;28;19960;-85
2023/09/18 12:57:49;;;;;;;;;;;;;;;7.87;100.00;98903.31;5038393;28;19925;-85
2023/09/18 13:00:19;;;;;;;;;;;;;;;7.89;100.00;98915.50;5038651;28;19971;-84
2023/09/18 13:02:45;;;;;;;;;;;;;;;7.98;100.00;98911.59;5037940;28;20426;-84
2023/09/18 13:05:10;;;;;;;;;;;;;;;7.77;100.00;98913.41;5038565;28;19917;-84
2023/09/18 13:07:43;;;;;;;;;;;;;;;7.52;100.00;98906.59;5038304;28;20343;-85
2023/09/18 13:10:10;;;;;;;;;;;;;;;7.68;100.00;98895.38;5037263;28;20388;-85
2023/09/18 13:12:52;;;;;;;;;;;;;;;7.86;100.00;98893.69;5038610;28;19975;-84
2023/09/18 13:15:27;;;;;;;;;;;;;;;8.04;100.00;98886.69;5038244;28;20395;-84
2023/09/18 13:17:53;;;;;;;;;;;;;;;7.78;100.00;98888.75;5037471;28;19923;-83
2023/09/18 13:20:26;;;;;;;;;;;;;;;7.70;100.00;98881.19;5038342;28;20015;-84
2023/09/18 13:22:52;;;;;;;;;;;;;;;7.96;100.00;98879.13;5037331;28;19925;-84
2023/09/18 13:25:22;;;;;;;;;;;;;;;8.04;100.00;98877.00;5038146;28;20373;-84
2023/09/18 13:27:47;;;;;;;;;;;;;;;8.18;100.00;98874.56;5037954;28;19917;-83
2023/09/18 13:30:16;;;;;;;;;;;;;;;7.94;100.00;98867.81;5037369;28;20054;-83
2023/09/18 13:32:42;;;;;;;;;;;;;;;7.73;100.00;98856.47;5036915;28;19917;-84
2023/09/18 13:35:08;;;;;;;;;;;;;;;7.87;100.00;98855.84;5038203;28;19970;-82
2023/09/18 13:37:34;;;;;;;;;;;;;;;8.11;100.00;98869.66;5038388;28;20076;-83
2023/09/18 13:40:01;;;;;;;;;;;;;;;8.23;100.00;98873.47;5035376;28;19968;-83
2023/09/18 13:42:27;;;;;;;;;;;;;;;7.92;100.00;98870.50;5053522;28;19929;-84
2023/09/18 13:44:53;;;;;;;;;;;;;;;7.57;100.00;98867.69;5037843;28;19975;-84
2023/09/18 13:47:19;;;;;;;;;;;;;;;7.45;100.00;98861.22;5038074;28;19917;-84
2023/09/18 13:49:46;;;;;;;;;;;;;;;7.36;100.00;98860.78;5038031;28;19917;-84
2023/09/18 13:52:11;;;;;;;;;;;;;;;7.29;100.00;98854.91;5038067;28;20276;-84
2023/09/18 13:54:37;;;;;;;;;;;;;;;7.26;100.00;98850.63;5036443;28;19921;-84
2023/09/18 13:57:05;;;;;;;;;;;;;;;7.22;100.00;98853.47;5038068;28;20426;-84
2023/09/18 13:59:30;;;;;;;;;;;;;;;7.16;100.00;98843.19;5036097;28;19917;-84
2023/09/18 14:01:55;;;;;;;;;;;;;;;7.12;100.00;98846.91;5034563;28;19917;-84
2023/09/18 14:04:22;;;;;;;;;;;;;;;7.04;100.00;98834.06;5034817;28;19913;-83
2023/09/18 14:06:47;;;;;;;;;;;;;;;7.10;100.00;98833.81;5035451;28;19964;-87
2023/09/18 14:09:12;;;;;;;;;;;;;;;6.97;100.00;98830.81;5032173;28;19968;-83
2023/09/18 14:11:38;;;;;;;;;;;;;;;7.04;100.00;98831.44;5034681;28;19928;-83
2023/09/18 14:14:03;;;;;;;;;;;;;;;7.30;100.00;98829.41;5034647;28;19971;-83
2023/09/18 14:16:29;;;;;;;;;;;;;;;7.54;100.00;98827.44;5034652;28;19979;-83
2023/09/18 14:18:54;;;;;;;;;;;;;;;7.56;100.00;98812.41;5034325;28;20450;-84
2023/09/18 14:21:20;;;;;;;;;;;;;;;7.71;100.00;98813.50;5033080;28;19923;-84
2023/09/18 14:23:45;;;;;;;;;;;;;;;7.47;100.00;98808.44;5033160;28;19952;-83
2023/09/18 14:26:10;;;;;;;;;;;;;;;7.33;100.00;98803.78;5033008;28;19967;-84
2023/09/18 14:28:35;;;;;;;;;;;;;;;7.43;100.00;98797.16;5034438;28;19924;-84
2023/09/18 14:31:02;;;;;;;;;;;;;;;7.61;100.00;98791.97;5033037;28;19920;-84
2023/09/18 14:33:31;;;;;;;;;;;;;;;7.82;100.00;98790.97;5033538;28;19917;-84
2023/09/18 14:35:56;;;;;;;;;;;;;;;7.90;100.00;98787.13;5034187;28;19923;-84
2023/09/18 14:38:22;;;;;;;;;;;;;;;7.68;100.00;98793.41;5032828;28;19913;-83
2023/09/18 14:40:47;;;;;;;;;;;;;;;7.45;100.00;98786.53;5034012;28;19917;-83
2023/09/18 14:43:13;;;;;;;;;;;;;;;7.33;100.00;98781.84;5034193;28;19943;-85
2023/09/18 14:45:40;;;;;;;;;;;;;;;7.34;100.00;98789.69;5033121;28;19970;-83
2023/09/18 14:48:05;;;;;;;;;;;;;;;7.57;100.00;98790.41;5033951;28;19924;-83
2023/09/18 14:50:30;;;;;;;;;;;;;;;7.78;100.00;98799.09;5034044;28;19917;-84
2023/09/18 14:52:55;;;;;;;;;;;;;;;7.84;100.00;98803.22;5032600;28;19924;-87
2023/09/18 14:55:21;;;;;;;;;;;;;;;7.87;100.00;98813.63;5033712;28;20392;-84
2023/09/18 14:57:46;;;;;;;;;;;;;;;7.51;100.00;98812.63;5033649;28;19975;-84
2023/09/18 15:00:12;;;;;;;;;;;;;;;7.42;100.00;98794.63;5034003;28;19991;-84
2023/09/18 15:02:37;;;;;;;;;;;;;;;7.30;100.00;98801.28;5033548;28;19917;-84
2023/09/18 15:05:07;;;;;;;;;;;;;;;7.17;100.00;98802.75;5033581;28;19971;-84
2023/09/18 15:07:32;;;;;;;;;;;;;;;7.20;100.00;98792.09;5033049;28;19928;-84
2023/09/18 15:09:58;;;;;;;;;;;;;;;7.09;100.00;98796.03;5032221;28;19917;-85
2023/09/18 15:12:23;;;;;;;;;;;;;;;7.02;100.00;98786.72;5032501;28;19994;-84
2023/09/18 15:14:49;;;;;;;;;;;;;;;7.06;100.00;98785.63;5033882;28;20360;-85
2023/09/18 15:17:18;;;;;;;;;;;;;;;7.35;100.00;98785.25;5033415;28;19964;-91
2023/09/18 15:19:48;;;;;;;;;;;;;;;7.51;100.00;98790.69;5033084;28;19956;-85
2023/09/18 15:22:13;;;;;;;;;;;;;;;7.57;100.00;98795.69;5033230;28;19996;-85
2023/09/18 15:24:38;;;;;;;;;;;;;;;7.43;100.00;98802.41;5032209;28;20450;-85
2023/09/18 15:27:04;;;;;;;;;;;;;;;7.26;100.00;98810.25;5033237;28;19928;-84
2023/09/18 15:29:30;;;;;;;;;;;;;;;7.15;100.00;98817.75;5033260;28;19924;-86
2023/09/18 15:31:57;;;;;;;;;;;;;;;7.09;100.00;98838.19;5031884;28;19921;-84
2023/09/18 15:34:23;;;;;;;;;;;;;;;7.24;100.00;98848.97;5032415;28;20384;-84
2023/09/18 15:36:49;;;;;;;;;;;;;;;7.16;100.00;98859.84;5033124;28;20391;-84
2023/09/18 15:39:14;;;;;;;;;;;;;;;7.07;100.00;98866.38;5047176;28;19991;-85
2023/09/18 15:41:40;;;;;;;;;;;;;;;7.18;100.00;98862.41;5033086;28;19968;-84
2023/09/18 15:44:06;;;;;;;;;;;;;;;7.49;100.00;98856.66;5032965;28;20058;-85
2023/09/18 15:46:32;;;;;;;;;;;;;;;7.59;100.00;98841.28;5031531;28;19925;-84
2023/09/18 15:48:57;;;;;;;;;;;;;;;7.71;100.00;98850.41;5032693;28;19921;-84
2023/09/18 15:51:22;;;;;;;;;;;;;;;7.59;100.00;98851.81;5032397;28;19913;-85
2023/09/18 15:53:47;;;;;;;;;;;;;;;7.64;100.00;98857.72;5046590;28;19967;-85
2023/09/18 15:56:13;;;;;;;;;;;;;;;7.73;100.00;98867.03;5047989;28;19921;-84
2023/09/18 15:58:39;;;;;;;;;;;;;;;7.89;100.00;98869.81;5032743;28;20016;-84
2023/09/18 16:01:04;;;;;;;;;;;;;;;7.89;100.00;98865.38;5032667;28;19917;-84
2023/09/18 16:03:30;;;;;;;;;;;;;;;7.61;100.00;98868.41;5032661;28;19918;-85
2023/09/18 16:05:55;;;;;;;;;;;;;;;7.38;100.00;98872.94;5032572;28;19929;-85
2023/09/18 16:08:20;;;;;;;;;;;;;;;7.45;100.00;98871.75;5031236;28;19987;-84
2023/09/18 16:10:46;;;;;;;;;;;;;;;7.64;100.00;98870.91;5032619;28;19953;-85
2023/09/18 16:13:11;;;;;;;;;;;;;;;7.78;100.00;98873.78;5032336;28;19917;-85
2023/09/18 16:15:36;;;;;;;;;;;;;;;7.90;100.00;98871.53;5032395;28;20335;-85
2023/09/18 16:18:01;;;;;;;;;;;;;;;7.68;100.00;98861.94;5032525;28;19913;-85
2023/09/18 16:20:27;;;;;;;;;;;;;;;7.41;100.00;98858.78;5032429;28;19921;-85
2023/09/18 16:22:52;;;;;;;;;;;;;;;7.28;100.00;98853.19;5031408;28;19968;-85
2023/09/18 16:25:17;;;;;;;;;;;;;;;7.23;100.00;98855.19;5031403;28;19917;-85
2023/09/18 16:27:43;;;;;;;;;;;;;;;7.10;100.00;98849.59;5032528;28;20199;-85
2023/09/18 16:30:08;;;;;;;;;;;;;;;7.16;100.00;98848.47;5032391;28;19943;-85
2023/09/18 16:32:36;;;;;;;;;;;;;;;6.97;100.00;98843.97;5032221;28;19921;-85
2023/09/18 16:35:01;;;;;;;;;;;;;;;6.94;100.00;98840.63;5032132;28;19996;-85
2023/09/18 16:37:27;;;;;;;;;;;;;;;6.99;100.00;98850.06;5030350;28;20376;-85
2023/09/18 16:39:52;;;;;;;;;;;;;;;6.97;100.00;98853.69;5030755;28;19927;-84
2023/09/18 16:42:17;;;;;;;;;;;;;;;6.97;100.00;98853.69;5032162;28;20012;-84
2023/09/18 16:44:48;;;;;;;;;;;;;;;6.90;100.00;98853.09;5032036;28;19923;-85
2023/09/18 16:47:13;;;;;;;;;;;;;;;6.92;100.00;98851.22;5030513;28;20023;-85
2023/09/18 16:49:38;;;;;;;;;;;;;;;6.86;100.00;98851.50;5032129;28;20340;-85
2023/09/18 16:52:04;;;;;;;;;;;;;;;6.79;100.00;98839.53;5031757;28;19917;-87
2023/09/18 16:54:30;;;;;;;;;;;;;;;6.80;100.00;98836.81;5033028;28;19928;-86
2023/09/18 16:56:56;;;;;;;;;;;;;;;6.81;100.00;98838.53;5030723;28;19925;-85
2023/09/18 16:59:25;;;;;;;;;;;;;;;6.76;100.00;98851.03;5031957;28;20280;-86
2023/09/18 17:05:15;;;;;;;;;;;;;;;6.75;100.00;98849.34;5009576;28;19924;-85
2023/09/18 17:07:42;;;;;;;;;;;;;;;6.75;100.00;98840.56;5024063;28;19921;-85
2023/09/18 17:10:08;;;;;;;;;;;;;;;6.70;100.00;98846.91;5029633;28;19922;-85
2023/09/18 17:12:37;;;;;;;;;;;;;;;6.75;100.00;98841.44;5030541;28;19934;-85
2023/09/18 17:15:02;;;;;;;;;;;;;;;6.76;100.00;98851.03;5030766;28;20479;-86
2023/09/18 17:17:28;;;;;;;;;;;;;;;6.74;100.00;98852.88;5030719;28;19927;-85
2023/09/18 17:19:53;;;;;;;;;;;;;;;6.74;100.00;98850.25;5031884;28;20322;-85
2023/09/18 17:22:19;;;;;;;;;;;;;;;6.75;100.00;98853.72;5030511;28;19928;-85
2023/09/18 17:24:44;;;;;;;;;;;;;;;6.69;100.00;98852.22;5029636;28;19921;-85
2023/09/18 17:27:10;;;;;;;;;;;;;;;6.75;100.00;98848.47;5030701;28;19917;-85
2023/09/18 17:29:35;;;;;;;;;;;;;;;6.70;100.00;98851.28;5030958;28;20431;-85
2023/09/18 17:32:00;;;;;;;;;;;;;;;6.72;100.00;98855.56;5030399;28;19917;-85
2023/09/18 17:34:27;;;;;;;;;;;;;;;6.73;100.00;98852.03;5030320;28;19925;-85
2023/09/18 17:36:55;;;;;;;;;;;;;;;6.75;100.00;98851.97;5035222;28;19940;-85
2023/09/18 17:39:23;;;;;;;;;;;;;;;6.69;100.00;98855.69;5031949;28;19921;-85
2023/09/18 17:41:48;;;;;;;;;;;;;;;6.73;100.00;98859.94;5034070;28;19917;-83
2023/09/18 17:44:13;;;;;;;;;;;;;;;6.62;100.00;98859.53;5034439;28;19929;-84
2023/09/18 17:46:40;;;;;;;;;;;;;;;6.68;100.00;98855.75;5034129;28;19929;-84
2023/09/18 17:49:08;;;;;;;;;;;;;;;6.61;100.00;98852.53;5034893;28;19917;-84
2023/09/18 17:51:34;;;;;;;;;;;;;;;6.64;100.00;98852.41;5033243;28;19921;-85
2023/09/18 17:53:59;;;;;;;;;;;;;;;6.58;100.00;98847.41;5032819;28;19956;-84
2023/09/18 17:56:25;;;;;;;;;;;;;;;6.62;100.00;98841.09;5033357;28;19974;-84
2023/09/18 17:58:50;;;;;;;;;;;;;;;6.59;100.00;98857.00;5034897;28;19924;-84
2023/09/18 18:01:16;;;;;;;;;;;;;;;6.57;100.00;98855.34;5034327;28;19925;-84
2023/09/18 18:03:43;;;;;;;;;;;;;;;6.54;100.00;98857.19;5050018;28;19924;-83
2023/09/18 18:06:09;;;;;;;;;;;;;;;6.54;100.00;98856.31;5033960;28;19927;-85
2023/09/18 18:09:43;;;;;;;;;;;;;;;6.58;100.00;98854.44;5030954;28;20292;-85
2023/09/18 18:11:44;;;;;;;;;;;;;;;6.51;100.00;98856.44;5009324;28;20447;-84
2023/09/18 18:14:09;;;;;;;;;;;;;;;6.54;100.00;98858.97;5034475;28;20050;-85
2023/09/18 18:16:35;;;;;;;;;;;;;;;6.51;100.00;98857.31;5032994;28;19957;-85
2023/09/18 18:19:00;;;;;;;;;;;;;;;6.58;100.00;98850.03;5033273;28;20308;-83
2023/09/18 18:21:31;;;;;;;;;;;;;;;6.52;100.00;98864.28;5031567;28;20402;-86
2023/09/18 18:24:03;;;;;;;;;;;;;;;6.51;100.00;98851.19;5031739;28;19921;-84
2023/09/18 18:26:29;;;;;;;;;;;;;;;6.62;100.00;98854.25;5048083;28;20023;-85
2023/09/18 18:28:57;;;;;;;;;;;;;;;6.54;100.00;98859.84;5032313;28;19987;-85
2023/09/18 18:31:22;;;;;;;;;;;;;;;6.51;100.00;98861.72;5032550;28;19967;-84
2023/09/18 18:33:49;;;;;;;;;;;;;;;6.54;100.00;98866.84;5033620;28;19921;-83
2023/09/18 18:36:14;;;;;;;;;;;;;;;6.50;100.00;98870.53;5032816;28;19921;-84
2023/09/18 18:38:40;;;;;;;;;;;;;;;6.50;100.00;98870.53;5031631;28;20347;-85
2023/09/18 18:41:05;;;;;;;;;;;;;;;6.46;100.00;98871.56;5033188;28;20289;-85
2023/09/18 18:43:31;;;;;;;;;;;;;;;6.49;100.00;98884.63;5032654;28;19947;-85
2023/09/18 18:45:59;;;;;;;;;;;;;;;6.46;100.00;98900.53;5032487;28;20360;-85
2023/09/18 18:48:26;;;;;;;;;;;;;;;6.44;100.00;98897.09;5032844;28;20008;-87
2023/09/18 18:50:52;;;;;;;;;;;;;;;6.45;100.00;98906.72;5033880;28;20364;-85
2023/09/18 18:53:17;;;;;;;;;;;;;;;6.49;100.00;98903.03;5031728;28;19923;-85
2023/09/18 18:55:45;;;;;;;;;;;;;;;6.46;100.00;98903.16;5032309;28;19948;-85
2023/09/18 18:58:10;;;;;;;;;;;;;;;6.47;100.00;98907.50;5032428;28;19990;-85
2023/09/18 19:00:36;;;;;;;;;;;;;;;6.43;100.00;98911.16;5034700;28;19921;-85
2023/09/18 19:03:04;;;;;;;;;;;;;;;6.34;100.00;98913.25;5032268;28;20384;-85
2023/09/18 19:05:30;;;;;;;;;;;;;;;6.29;100.00;98915.22;5032873;28;19971;-85
2023/09/18 19:07:56;;;;;;;;;;;;;;;6.38;100.00;98918.41;5033238;28;20011;-85
2023/09/18 19:10:21;;;;;;;;;;;;;;;6.46;100.00;98926.84;5031457;28;20023;-85
2023/09/18 19:12:46;;;;;;;;;;;;;;;6.41;100.00;98934.91;5032202;28;19917;-83
2023/09/18 19:15:12;;;;;;;;;;;;;;;6.38;100.00;98947.34;5033421;28;19979;-84
2023/09/18 19:17:37;;;;;;;;;;;;;;;6.40;100.00;98948.13;5033458;28;19917;-84
2023/09/18 19:20:04;;;;;;;;;;;;;;;6.38;100.00;98949.97;5033402;28;19924;-84
2023/09/18 19:22:29;;;;;;;;;;;;;;;6.41;100.00;98947.22;5031204;28;19975;-85
2023/09/18 19:24:54;;;;;;;;;;;;;;;6.40;100.00;98953.41;5032194;28;19967;-90
2023/09/18 19:27:20;;;;;;;;;;;;;;;6.34;100.00;98947.47;5031918;28;20307;-84
2023/09/18 19:29:45;;;;;;;;;;;;;;;6.35;100.00;98951.81;5033070;28;19917;-84
2023/09/18 19:32:11;;;;;;;;;;;;;;;6.30;100.00;98959.03;5033080;28;19921;-83
2023/09/18 19:34:37;;;;;;;;;;;;;;;6.26;100.00;98957.44;5033033;28;19925;-84
2023/09/18 19:37:02;;;;;;;;;;;;;;;6.24;100.00;98964.53;5033102;28;19921;-83
2023/09/18 19:39:28;;;;;;;;;;;;;;;6.23;100.00;98962.81;5031654;28;20028;-84
2023/09/18 19:41:56;;;;;;;;;;;;;;;6.30;100.00;98960.78;5032920;28;20277;-84
2023/09/18 19:44:22;;;;;;;;;;;;;;;6.23;100.00;98968.06;5032927;28;19917;-84
2023/09/18 19:46:47;;;;;;;;;;;;;;;6.27;100.00;98969.69;5032788;28;19940;-85
2023/09/18 19:49:12;;;;;;;;;;;;;;;6.22;100.00;98971.59;5032740;28;19925;-84
2023/09/18 19:51:38;;;;;;;;;;;;;;;6.20;100.00;98968.19;5031262;28;20012;-85
2023/09/18 19:54:03;;;;;;;;;;;;;;;6.26;100.00;98975.00;5030438;28;20027;-85
2023/09/18 19:56:29;;;;;;;;;;;;;;;6.23;100.00;98978.59;5032501;28;19925;-84
2023/09/18 19:58:54;;;;;;;;;;;;;;;6.23;100.00;98988.28;5032052;28;20357;-84
2023/09/18 20:01:19;;;;;;;;;;;;;;;6.20;100.00;98989.22;5031312;28;19943;-84
2023/09/18 20:03:44;;;;;;;;;;;;;;;6.25;100.00;98986.44;5032721;28;19921;-84
2023/09/18 20:06:10;;;;;;;;;;;;;;;6.20;100.00;98993.66;5032062;28;19968;-83
2023/09/18 20:08:35;;;;;;;;;;;;;;;6.25;100.00;99000.44;5031238;28;19964;-85
2023/09/18 20:11:02;;;;;;;;;;;;;;;6.19;100.00;99000.69;5032619;28;20361;-85
2023/09/18 20:13:29;;;;;;;;;;;;;;;6.18;100.00;99005.06;5032296;28;19921;-85
2023/09/18 20:15:54;;;;;;;;;;;;;;;6.23;100.00;99002.28;5030414;28;20008;-85
2023/09/18 20:18:20;;;;;;;;;;;;;;;6.20;100.00;98999.75;5032329;28;20008;-84
2023/09/18 20:20:45;;;;;;;;;;;;;;;6.17;100.00;99000.75;5030910;28;20456;-85
2023/09/18 20:23:10;;;;;;;;;;;;;;;6.16;100.00;99006.91;5031049;28;19917;-84
2023/09/18 20:25:36;;;;;;;;;;;;;;;6.20;100.00;99004.16;5032076;28;20368;-83
2023/09/18 20:28:01;;;;;;;;;;;;;;;6.12;100.00;99009.72;5032167;28;20353;-83
2023/09/18 20:30:26;;;;;;;;;;;;;;;6.21;100.00;99021.66;5032195;28;20347;-83
2023/09/18 20:32:52;;;;;;;;;;;;;;;6.12;100.00;99012.34;5031932;28;19924;-84
2023/09/18 20:35:17;;;;;;;;;;;;;;;6.12;100.00;99012.34;5031947;28;19975;-83
2023/09/18 20:37:42;;;;;;;;;;;;;;;6.17;100.00;99018.28;5032146;28;20357;-83
2023/09/18 20:40:08;;;;;;;;;;;;;;;6.18;100.00;99012.97;5030836;28;20307;-84
2023/09/18 20:42:33;;;;;;;;;;;;;;;6.22;100.00;99018.09;5032031;28;19965;-84
2023/09/18 20:44:59;;;;;;;;;;;;;;;6.14;100.00;99018.38;5032049;28;20315;-84
2023/09/18 20:47:25;;;;;;;;;;;;;;;6.15;100.00;99020.97;5031921;28;19924;-83